createdAt,value
2018-07-02T00:04:51.021Z,37.00
2018-07-02T00:09:55.973Z,37.10
2018-07-02T00:15:00.697Z,37.10
2018-07-02T00:20:06.541Z,37.20
2018-07-02T00:25:11.345Z,37.20
2018-07-02T00:30:15.948Z,37.20
2018-07-02T00:35:20.380Z,37.20
2018-07-02T00:40:25.272Z,37.30
2018-07-02T00:45:29.726Z,37.40
2018-07-02T00:50:34.208Z,37.40
2018-07-02T00:55:39.001Z,37.50
2018-07-02T01:00:43.902Z,37.40
2018-07-02T01:05:48.557Z,37.50
2018-07-02T01:10:53.008Z,37.60
2018-07-02T01:15:57.505Z,37.70
2018-07-02T01:21:01.977Z,37.70
2018-07-02T01:26:06.610Z,37.70
2018-07-02T01:31:11.173Z,37.70
2018-07-02T01:36:15.626Z,37.80
2018-07-02T01:46:25.061Z,37.80
2018-07-02T01:51:29.806Z,37.80
2018-07-02T01:56:34.241Z,37.80
2018-07-02T02:01:38.840Z,37.90
2018-07-02T02:11:47.797Z,37.70
2018-07-02T02:16:52.441Z,37.90
2018-07-02T02:21:56.936Z,37.90
2018-07-02T02:27:01.388Z,38.00
2018-07-02T02:32:06.019Z,38.00
2018-07-02T02:37:10.712Z,38.00
2018-07-02T02:42:15.345Z,38.00
2018-07-02T02:47:20.520Z,38.00
2018-07-02T02:52:25.233Z,38.10
2018-07-02T02:57:29.952Z,38.10
2018-07-02T03:02:34.446Z,38.10
2018-07-02T03:12:43.251Z,38.10
2018-07-02T03:17:47.698Z,38.10
2018-07-02T03:22:52.113Z,38.20
2018-07-02T03:27:56.879Z,38.20
2018-07-02T03:33:01.869Z,38.20
2018-07-02T03:38:06.501Z,38.20
2018-07-02T03:43:11.225Z,38.20
2018-07-02T03:48:15.936Z,38.20
2018-07-02T03:53:20.653Z,37.90
2018-07-02T04:03:29.337Z,38.20
2018-07-02T04:08:33.801Z,37.80
2018-07-02T04:13:38.295Z,37.50
2018-07-02T04:23:47.158Z,36.40
2018-07-02T04:28:51.749Z,36.70
2018-07-02T04:33:56.178Z,36.50
2018-07-02T04:39:00.832Z,36.10
2018-07-02T04:44:05.989Z,36.10
2018-07-02T04:49:10.640Z,35.90
2018-07-02T04:54:15.052Z,35.90
2018-07-02T04:59:19.621Z,35.90
2018-07-02T05:04:24.105Z,35.80
2018-07-02T05:09:28.570Z,35.90
2018-07-02T05:14:33.229Z,35.70
2018-07-02T05:19:37.745Z,35.70
2018-07-02T05:24:42.279Z,36.30
2018-07-02T05:29:46.753Z,35.60
2018-07-02T05:34:51.193Z,35.70
2018-07-02T05:39:55.687Z,35.70
2018-07-02T05:45:00.457Z,35.90
2018-07-02T05:50:04.941Z,36.10
2018-07-02T05:55:09.649Z,36.20
2018-07-02T06:00:14.505Z,36.20
2018-07-02T06:05:19.033Z,36.50
2018-07-02T06:10:23.562Z,37.10
2018-07-02T06:15:28.666Z,36.60
2018-07-02T06:20:33.261Z,36.30
2018-07-02T06:25:37.928Z,36.30
2018-07-02T06:30:42.645Z,36.40
2018-07-02T06:35:47.409Z,36.50
2018-07-02T06:40:52.138Z,36.40
2018-07-02T06:45:56.676Z,36.50
2018-07-02T06:51:01.579Z,36.90
2018-07-02T06:56:06.057Z,37.00
2018-07-02T07:01:10.704Z,37.20
2018-07-02T07:06:15.595Z,37.20
2018-07-02T07:11:20.053Z,37.50
2018-07-02T07:16:26.902Z,37.30
2018-07-02T07:21:31.816Z,36.90
2018-07-02T07:26:36.394Z,36.90
2018-07-02T07:31:40.796Z,37.20
2018-07-02T07:36:45.409Z,37.20
2018-07-02T07:41:49.863Z,36.90
2018-07-02T07:51:58.792Z,36.50
2018-07-02T07:57:03.421Z,36.30
2018-07-02T08:02:08.337Z,36.60
2018-07-02T08:07:12.877Z,35.70
2018-07-02T08:12:17.620Z,36.20
2018-07-02T08:17:22.177Z,35.40
2018-07-02T08:22:26.537Z,35.20
2018-07-02T08:27:31.203Z,35.20
2018-07-02T08:32:35.877Z,35.60
2018-07-02T08:37:40.343Z,35.20
2018-07-02T08:42:44.856Z,35.30
2018-07-02T08:47:49.293Z,35.60
2018-07-02T08:52:53.729Z,35.00
2018-07-02T08:57:58.528Z,35.90
2018-07-02T09:03:03.331Z,35.00
2018-07-02T09:08:08.013Z,35.10
2018-07-02T09:13:12.487Z,34.60
2018-07-02T09:18:17.012Z,34.30
2018-07-02T09:23:21.393Z,35.00
2018-07-02T09:28:26.057Z,34.40
2018-07-02T09:33:30.757Z,34.80
2018-07-02T09:38:35.183Z,34.80
2018-07-02T09:43:39.576Z,34.40
2018-07-02T09:48:43.990Z,34.20
2018-07-02T09:53:48.603Z,34.50
2018-07-02T09:58:52.973Z,34.20
2018-07-02T10:03:57.490Z,34.70
2018-07-02T10:09:02.002Z,34.80
2018-07-02T10:14:06.568Z,33.50
2018-07-02T10:19:11.347Z,33.70
2018-07-02T10:24:15.889Z,34.60
2018-07-02T10:29:20.612Z,34.50
2018-07-02T10:34:25.232Z,34.80
2018-07-02T10:39:30.119Z,33.60
2018-07-02T10:44:34.591Z,32.20
2018-07-02T10:54:43.280Z,32.20
2018-07-02T10:59:47.901Z,33.10
2018-07-02T11:20:05.770Z,32.60
2018-07-02T11:25:10.293Z,31.10
2018-07-02T11:35:19.001Z,30.20
2018-07-02T11:40:23.406Z,31.60
2018-07-02T11:50:32.189Z,31.10
2018-07-02T11:55:36.648Z,30.00
2018-07-02T12:00:41.129Z,30.00
2018-07-02T12:05:45.658Z,30.40
2018-07-02T12:10:50.258Z,30.90
2018-07-02T12:15:54.797Z,30.60
2018-07-02T12:20:59.525Z,28.50
2018-07-02T12:26:03.975Z,28.00
2018-07-02T12:31:08.396Z,27.80
2018-07-02T12:36:12.878Z,28.70
2018-07-02T12:41:17.703Z,29.30
2018-07-02T12:46:22.092Z,29.70
2018-07-02T12:51:26.553Z,30.30
2018-07-02T12:56:31.329Z,31.20
2018-07-02T13:01:35.929Z,31.80
2018-07-02T13:06:40.351Z,32.00
2018-07-02T13:16:49.205Z,32.80
2018-07-02T13:21:53.809Z,32.80
2018-07-02T13:26:58.739Z,32.80
2018-07-02T13:32:03.316Z,33.20
2018-07-02T13:37:07.817Z,33.30
2018-07-02T13:42:12.603Z,33.30
2018-07-02T13:47:17.057Z,33.80
2018-07-02T13:52:21.579Z,33.70
2018-07-02T13:57:26.280Z,34.40
2018-07-02T14:02:30.861Z,35.40
2018-07-02T14:07:35.321Z,35.50
2018-07-02T14:12:39.801Z,35.50
2018-07-02T14:17:44.304Z,35.30
2018-07-02T14:27:53.269Z,35.90
2018-07-02T14:32:57.829Z,34.60
2018-07-02T14:38:02.294Z,32.90
2018-07-02T14:43:06.936Z,34.40
2018-07-02T14:48:11.481Z,34.60
2018-07-02T14:53:16.175Z,35.70
2018-07-02T14:58:20.650Z,35.30
2018-07-02T15:08:29.381Z,35.10
2018-07-02T15:13:33.988Z,35.80
2018-07-02T15:18:38.408Z,36.00
2018-07-02T15:23:42.855Z,35.90
2018-07-02T15:28:47.519Z,36.40
2018-07-02T15:33:52.065Z,35.50
2018-07-02T15:38:56.660Z,33.50
2018-07-02T15:44:01.237Z,33.10
2018-07-02T15:49:05.735Z,34.00
2018-07-02T15:54:10.163Z,34.20
2018-07-02T15:59:14.756Z,34.40
2018-07-02T16:04:19.356Z,34.20
2018-07-02T16:09:24.158Z,34.10
2018-07-02T16:14:28.794Z,33.60
2018-07-02T16:19:33.181Z,34.00
2018-07-02T16:24:37.728Z,34.10
2018-07-02T16:29:42.155Z,34.70
2018-07-02T16:34:46.629Z,34.60
2018-07-02T16:39:51.161Z,34.20
2018-07-02T16:44:55.715Z,34.90
2018-07-02T16:50:00.128Z,33.00
2018-07-02T16:55:04.846Z,32.40
2018-07-02T17:00:09.385Z,32.60
2018-07-02T17:05:13.798Z,32.90
2018-07-02T17:10:18.360Z,33.10
2018-07-02T17:15:23.035Z,32.40
2018-07-02T17:20:27.538Z,31.80
2018-07-02T17:25:32.297Z,32.30
2018-07-02T17:30:36.954Z,32.70
2018-07-02T17:35:41.720Z,33.10
2018-07-02T17:40:46.321Z,33.30
2018-07-02T17:45:51.161Z,33.60
2018-07-02T17:50:55.789Z,33.90
2018-07-02T17:56:00.581Z,35.40
2018-07-02T18:01:05.056Z,35.30
2018-07-02T18:06:09.856Z,34.00
2018-07-02T18:11:14.539Z,34.40
2018-07-02T18:21:24.884Z,35.00
2018-07-02T18:26:29.407Z,35.40
2018-07-02T18:31:34.919Z,35.50
2018-07-02T18:36:40.035Z,35.60
2018-07-02T18:41:44.424Z,35.70
2018-07-02T18:46:49.011Z,35.80
2018-07-02T18:51:54.023Z,36.50
2018-07-02T19:02:02.740Z,36.10
2018-07-02T19:07:07.192Z,36.10
2018-07-02T19:12:11.823Z,36.20
2018-07-02T19:17:16.584Z,36.40
2018-07-02T19:22:21.297Z,36.50
2018-07-02T19:32:30.072Z,36.70
2018-07-02T19:37:34.461Z,36.80
2018-07-02T19:42:39.654Z,36.90
2018-07-02T19:47:44.417Z,36.90
2018-07-02T19:52:48.919Z,37.00
2018-07-02T19:57:53.897Z,37.10
2018-07-02T20:02:58.698Z,37.30
2018-07-02T20:08:03.400Z,37.40
2018-07-02T20:13:08.033Z,37.50
2018-07-02T20:18:12.551Z,37.60
2018-07-02T20:23:18.052Z,37.40
2018-07-02T20:28:22.692Z,37.20
2018-07-02T20:33:27.132Z,36.90
2018-07-02T20:38:31.844Z,37.40
2018-07-02T20:43:36.793Z,37.90
2018-07-02T20:53:47.253Z,38.20
2018-07-02T20:58:52.616Z,38.30
2018-07-02T21:03:57.482Z,38.30
2018-07-02T21:09:04.049Z,38.50
2018-07-02T21:14:08.642Z,38.60
2018-07-02T21:19:13.288Z,38.60
2018-07-02T21:24:17.838Z,38.70
2018-07-02T21:29:22.321Z,38.80
2018-07-02T21:34:28.058Z,38.80
2018-07-02T21:39:33.420Z,38.90
2018-07-02T21:44:38.261Z,39.00
2018-07-02T21:49:43.377Z,39.00
2018-07-02T21:54:48.056Z,39.10
2018-07-02T21:59:54.334Z,39.10
2018-07-02T22:04:59.428Z,39.10
2018-07-02T22:10:04.528Z,39.20
2018-07-02T22:15:09.260Z,39.20
2018-07-02T22:20:14.521Z,39.20
2018-07-02T22:25:19.253Z,39.20
2018-07-02T22:30:24.569Z,39.30
2018-07-02T22:35:29.712Z,39.40
2018-07-02T22:40:34.672Z,39.40
2018-07-02T22:45:40.099Z,39.40
2018-07-02T22:50:45.394Z,39.40
2018-07-02T22:56:02.915Z,39.40
2018-07-02T23:01:07.529Z,39.40
2018-07-02T23:06:11.960Z,39.40
2018-07-02T23:11:16.525Z,39.50
2018-07-02T23:16:21.249Z,39.50
2018-07-02T23:21:26.022Z,39.50
2018-07-02T23:26:30.744Z,39.50
2018-07-02T23:31:35.197Z,39.50
2018-07-02T23:36:40.172Z,39.60
2018-07-02T23:41:45.360Z,39.60
2018-07-02T23:46:49.973Z,39.60
2018-07-02T23:56:59.881Z,39.60
